Time;durP1;ratioP1;P1;durP2;ratioP2;P2;SDS_P1;SDS_P2;PMS_P1;PMS_P2;Temp;Humidity;BMP_temperature;BMP_pressure;BME280_temperature;BME280_humidity;BME280_pressure;Samples;Min_cycle;Max_cycle;Signal;HPM_P1;HPM_P2
2023/11/08 00:00:22;;;;;;;1999.90;999.90;;;;;;;9.57;89.91;96605.75;5155270;27;20082;-64
2023/11/08 00:02:55;;;;;;;1999.90;999.90;;;;;;;9.50;89.97;96617.31;5155106;27;20558;-64
2023/11/08 00:05:26;;;;;;;1999.90;999.90;;;;;;;9.54;90.05;96612.84;5155046;27;20093;-63
2023/11/08 00:07:53;;;;;;;1999.90;999.90;;;;;;;9.54;90.23;96624.13;5155055;27;20043;-63
2023/11/08 00:10:20;;;;;;;1999.90;999.90;;;;;;;9.57;90.36;96617.97;5155159;27;20046;-62
2023/11/08 00:12:47;;;;;;;1999.90;999.90;;;;;;;9.58;90.09;96607.47;5155177;27;20130;-63
2023/11/08 00:15:15;;;;;;;1999.90;999.90;;;;;;;9.55;91.67;96604.09;5155070;27;20057;-64
2023/11/08 00:17:42;;;;;;;1999.90;999.90;;;;;;;9.60;94.38;96594.34;5155013;27;20074;-63
2023/11/08 00:20:11;;;;;;;1999.90;999.90;;;;;;;9.67;93.67;96595.00;5155003;27;20055;-64
2023/11/08 00:22:43;;;;;;;1999.90;999.90;;;;;;;9.61;92.78;96589.06;5154872;27;20055;-63
2023/11/08 00:25:10;;;;;;;1999.90;999.90;;;;;;;9.57;91.90;96594.47;5154864;27;20564;-62
2023/11/08 00:27:38;;;;;;;1999.90;999.90;;;;;;;9.57;91.36;96607.53;5154870;27;20081;-64
2023/11/08 00:30:06;;;;;;;1999.90;999.90;;;;;;;9.55;90.87;96611.94;5154678;27;20461;-63
2023/11/08 00:32:34;;;;;;;1999.90;999.90;;;;;;;9.55;90.22;96611.94;5154835;27;20043;-62
2023/11/08 00:35:01;;;;;;;1999.90;999.90;;;;;;;9.51;89.77;96603.34;5154437;27;20049;-63
2023/11/08 00:37:28;;;;;;;1999.90;999.90;;;;;;;9.52;90.76;96598.97;5154617;27;20046;-63
2023/11/08 00:39:57;;;;;;;1999.90;999.90;;;;;;;9.52;91.78;96581.56;5154592;27;20522;-61
2023/11/08 00:42:25;;;;;;;1999.90;999.90;;;;;;;9.47;92.06;96570.41;5134111;28;20457;-64
2023/11/08 00:44:52;;;;;;;1999.90;999.90;;;;;;;9.43;92.32;96560.97;5134223;28;20467;-62
2023/11/08 00:47:19;;;;;;;1999.90;999.90;;;;;;;9.51;92.45;96561.56;5133912;28;20045;-64
2023/11/08 00:49:46;;;;;;;1999.90;999.90;;;;;;;9.48;91.83;96554.69;5133956;28;20049;-63
2023/11/08 00:52:14;;;;;;;1999.90;999.90;;;;;;;9.48;91.26;96554.69;5134014;28;20126;-63
2023/11/08 00:54:41;;;;;;;1999.90;999.90;;;;;;;9.48;90.67;96567.75;5133839;28;20050;-62
2023/11/08 00:57:12;;;;;;;1999.90;999.90;;;;;;;9.47;90.07;96570.41;5133920;28;20043;-64
2023/11/08 00:59:41;;;;;;;1999.90;999.90;;;;;;;9.38;90.34;96550.69;5133890;28;20058;-63
2023/11/08 01:02:09;;;;;;;1999.90;999.90;;;;;;;9.37;92.88;96554.22;5134060;28;20125;-64
2023/11/08 01:04:36;;;;;;;1999.90;999.90;;;;;;;9.42;94.47;96541.00;5133820;28;20043;-63
2023/11/08 01:07:04;;;;;;;1999.90;999.90;;;;;;;9.43;94.35;96542.69;5133759;28;20116;-64
2023/11/08 01:09:32;;;;;;;1999.90;999.90;;;;;;;9.47;93.93;96533.84;5133921;28;20047;-63
2023/11/08 01:12:00;;;;;;;1999.90;999.90;;;;;;;9.44;94.16;96533.94;5133673;28;20059;-62
2023/11/08 01:14:28;;;;;;;1999.90;999.90;;;;;;;9.45;93.80;96528.69;5133640;28;20390;-64
2023/11/08 01:16:55;;;;;;;1999.90;999.90;;;;;;;9.45;94.45;96518.22;5133705;28;20050;-62
2023/11/08 01:19:23;;;;;;;1999.90;999.90;;;;;;;9.52;94.72;96504.97;5133877;28;20062;-63
2023/11/08 01:21:50;;;;;;;1999.90;999.90;;;;;;;9.55;93.38;96503.13;5133656;28;20051;-65
2023/11/08 01:24:17;;;;;;;1999.90;999.90;;;;;;;9.56;94.67;96504.81;5133535;28;20055;-62
2023/11/08 01:26:44;;;;;;;1999.90;999.90;;;;;;;9.55;93.57;96510.97;5133882;28;20068;-64
2023/11/08 01:29:11;;;;;;;1999.90;999.90;;;;;;;9.53;92.72;96498.84;5133678;28;20122;-63
2023/11/08 01:31:40;;;;;;;1999.90;999.90;;;;;;;9.41;92.50;96493.13;5133398;28;20043;-64
2023/11/08 01:34:08;;;;;;;1999.90;999.90;;;;;;;9.44;93.95;96500.88;5133597;28;20096;-63
2023/11/08 01:36:35;;;;;;;1999.90;999.90;;;;;;;9.47;93.85;96500.78;5133610;28;20043;-62
2023/11/08 01:39:03;;;;;;;1999.90;999.90;;;;;;;9.50;93.11;96504.16;5133444;28;20048;-64
2023/11/08 01:41:30;;;;;;;1999.90;999.90;;;;;;;9.53;92.66;96498.84;5147083;27;20396;-62
2023/11/08 01:44:01;;;;;;;1999.90;999.90;;;;;;;9.50;92.21;96488.50;5154105;27;20054;-63
2023/11/08 01:46:29;;;;;;;1999.90;999.90;;;;;;;9.51;92.74;96498.06;5156213;27;20046;-63
2023/11/08 01:48:59;;;;;;;1999.90;999.90;;;;;;;9.51;93.06;96490.22;5157770;27;20047;-63
2023/11/08 01:51:26;;;;;;;1999.90;999.90;;;;;;;9.46;93.43;96483.38;5157764;27;20039;-63
2023/11/08 01:53:56;;;;;;;1999.90;999.90;;;;;;;9.53;93.21;96470.13;5157683;27;20042;-64
2023/11/08 01:56:23;;;;;;;1999.90;999.90;;;;;;;9.51;92.50;96469.34;5157638;27;20046;-63
2023/11/08 01:58:53;;;;;;;1999.90;999.90;;;;;;;9.38;92.51;96461.91;5157696;27;20081;-63
2023/11/08 02:01:21;;;;;;;1999.90;999.90;;;;;;;9.43;92.49;96470.47;5157547;27;20126;-63
2023/11/08 02:03:48;;;;;;;1999.90;999.90;;;;;;;9.44;92.95;96472.16;5157373;27;20054;-64
2023/11/08 02:06:17;;;;;;;1999.90;999.90;;;;;;;9.45;93.45;96470.41;5157466;27;20050;-62
2023/11/08 02:08:44;;;;;;;1999.90;999.90;;;;;;;9.48;94.31;96483.31;5157529;27;20138;-64
2023/11/08 02:11:12;;;;;;;1999.90;999.90;;;;;;;9.53;96.86;96480.56;5157275;27;20446;-63
2023/11/08 02:13:39;;;;;;;1999.90;999.90;;;;;;;9.59;97.38;96478.59;5157648;27;20047;-64
2023/11/08 02:16:07;;;;;;;1999.90;999.90;;;;;;;9.52;96.23;96464.06;5157197;27;20082;-63
2023/11/08 02:18:34;;;;;;;1999.90;999.90;;;;;;;9.52;96.43;96468.41;5157228;27;20055;-64
2023/11/08 02:21:02;;;;;;;1999.90;999.90;;;;;;;9.52;96.93;96474.50;5157347;27;20045;-63
2023/11/08 02:23:31;;;;;;;1999.90;999.90;;;;;;;9.56;96.67;96475.22;5157313;27;20051;-62
2023/11/08 02:26:00;;;;;;;1999.90;999.90;;;;;;;9.53;95.40;96480.56;5157142;27;20134;-61
2023/11/08 02:28:28;;;;;;;1999.90;999.90;;;;;;;9.51;94.66;96472.78;5157156;27;20046;-62
2023/11/08 02:30:55;;;;;;;1999.90;999.90;;;;;;;9.52;93.82;96471.03;5157028;27;20054;-64
2023/11/08 02:33:23;;;;;;;1999.90;999.90;;;;;;;9.50;93.43;96471.09;5156999;27;20047;-63
2023/11/08 02:35:51;;;;;;;1999.90;999.90;;;;;;;9.51;95.13;96454.50;5157119;27;20091;-63
2023/11/08 02:38:18;;;;;;;1999.90;999.90;;;;;;;9.51;94.81;96451.06;5156767;27;20046;-63
2023/11/08 02:40:45;;;;;;;1999.90;999.90;;;;;;;9.50;93.89;96455.41;5156600;27;20054;-63
2023/11/08 02:43:15;;;;;;;1999.90;999.90;;;;;;;9.51;94.25;96461.50;5156757;27;20075;-62
2023/11/08 02:45:42;;;;;;;1999.90;999.90;;;;;;;9.51;94.17;96464.94;5156731;27;20453;-63
2023/11/08 02:48:09;;;;;;;1999.90;999.90;;;;;;;9.51;93.06;96464.94;5156607;27;20046;-62
2023/11/08 02:50:37;;;;;;;1999.90;999.90;;;;;;;9.42;93.12;96467.91;5156675;27;20089;-62
2023/11/08 02:53:05;;;;;;;1999.90;999.90;;;;;;;9.34;93.46;96474.22;5156908;27;20046;-63
2023/11/08 02:55:33;;;;;;;1999.90;999.90;;;;;;;9.33;93.35;96474.28;5156665;27;20133;-63
2023/11/08 02:58:00;;;;;;;1999.90;999.90;;;;;;;9.40;93.72;96485.34;5156249;27;20492;-62
2023/11/08 03:00:29;;;;;;;1999.90;999.90;;;;;;;9.37;93.40;96481.09;5156513;27;20763;-64
2023/11/08 03:02:57;;;;;;;1999.90;999.90;;;;;;;9.38;93.36;96474.97;5156281;27;20095;-64
2023/11/08 03:05:24;;;;;;;1999.90;999.90;;;;;;;9.39;92.58;96471.44;5156437;27;20050;-61
2023/11/08 03:07:53;;;;;;;1999.90;999.90;;;;;;;9.33;92.23;96480.34;5156259;27;20552;-64
2023/11/08 03:10:21;;;;;;;1999.90;999.90;;;;;;;9.36;92.38;96484.59;5156211;27;20111;-64
2023/11/08 03:12:50;;;;;;;1999.90;999.90;;;;;;;9.34;91.60;96486.44;5156078;27;20043;-64
2023/11/08 03:15:17;;;;;;;1999.90;999.90;;;;;;;9.28;90.85;96484.03;5156096;27;20500;-63
2023/11/08 03:17:47;;;;;;;1999.90;999.90;;;;;;;9.30;91.05;96479.63;5156152;27;20054;-64
2023/11/08 03:20:14;;;;;;;1999.90;999.90;;;;;;;9.26;90.80;96475.38;5156031;27;20042;-63
2023/11/08 03:22:42;;;;;;;1999.90;999.90;;;;;;;9.18;91.01;96466.06;5155891;27;20053;-63
2023/11/08 03:25:11;;;;;;;1999.90;999.90;;;;;;;9.16;91.44;96477.44;5155780;27;20107;-62
2023/11/08 03:27:41;;;;;;;1999.90;999.90;;;;;;;9.07;92.19;96473.41;5156042;27;20053;-64
2023/11/08 03:30:12;;;;;;;1999.90;999.90;;;;;;;9.04;92.79;96469.13;5155923;27;20047;-64
2023/11/08 03:32:39;;;;;;;1999.90;999.90;;;;;;;8.91;94.30;96467.84;5155781;27;20095;-62
2023/11/08 03:35:10;;;;;;;1999.90;999.90;;;;;;;8.92;95.47;96459.09;5155909;27;20155;-64
2023/11/08 03:37:37;;;;;;;1999.90;999.90;;;;;;;8.93;96.45;96452.97;5155804;27;20099;-63
2023/11/08 03:40:05;;;;;;;1999.90;999.90;;;;;;;8.91;96.20;96455.63;5155370;27;20070;-63
2023/11/08 03:42:34;;;;;;;1999.90;999.90;;;;;;;8.97;95.68;96467.59;5155883;27;20103;-63
2023/11/08 03:45:01;;;;;;;1999.90;999.90;;;;;;;8.98;96.65;96469.34;5155437;27;20043;-63
2023/11/08 03:47:28;;;;;;;1999.90;999.90;;;;;;;8.97;96.63;96470.22;5155442;27;20096;-64
2023/11/08 03:49:55;;;;;;;1999.90;999.90;;;;;;;9.01;96.46;96465.75;5155379;27;20047;-63
2023/11/08 03:52:24;;;;;;;1999.90;999.90;;;;;;;8.89;96.13;96441.78;5155362;27;20496;-63
2023/11/08 03:54:51;;;;;;;1999.90;999.90;;;;;;;9.05;95.57;96468.22;5155393;27;20039;-63
2023/11/08 03:57:19;;;;;;;1999.90;999.90;;;;;;;9.09;94.45;96464.59;5155405;27;20091;-62
2023/11/08 03:59:49;;;;;;;1999.90;999.90;;;;;;;9.08;94.48;96462.91;5155213;27;20046;-63
2023/11/08 04:02:17;;;;;;;1999.90;999.90;;;;;;;9.12;94.60;96468.84;5155200;27;20077;-62
2023/11/08 04:04:45;;;;;;;1999.90;999.90;;;;;;;9.11;94.25;96464.56;5155098;27;20046;-64
2023/11/08 04:07:12;;;;;;;1999.90;999.90;;;;;;;9.09;93.96;96464.59;5155360;27;20097;-62
2023/11/08 04:09:41;;;;;;;1999.90;999.90;;;;;;;9.09;93.64;96456.78;5154650;27;20043;-64
2023/11/08 04:12:09;;;;;;;1999.90;999.90;;;;;;;9.03;92.72;96448.31;5155375;27;20042;-64
2023/11/08 04:14:37;;;;;;;1999.90;999.90;;;;;;;8.91;92.98;96447.78;5155056;27;20082;-62
2023/11/08 04:17:05;;;;;;;1999.90;999.90;;;;;;;8.97;93.33;96446.72;5154989;27;20072;-64
2023/11/08 04:19:33;;;;;;;1999.90;999.90;;;;;;;9.00;94.14;96448.41;5154896;27;20086;-63
2023/11/08 04:22:00;;;;;;;1999.90;999.90;;;;;;;9.04;94.31;96456.09;5155000;27;20085;-64
2023/11/08 04:24:29;;;;;;;1999.90;999.90;;;;;;;9.01;93.99;96461.41;5154813;27;20059;-62
2023/11/08 04:26:59;;;;;;;1999.90;999.90;;;;;;;9.03;93.25;96466.59;5154802;27;20043;-62
2023/11/08 04:29:26;;;;;;;1999.90;999.90;;;;;;;9.05;93.14;96468.22;5154857;27;20043;-61
2023/11/08 04:31:54;;;;;;;1999.90;999.90;;;;;;;9.09;93.05;96461.13;5154781;27;20127;-62
2023/11/08 04:34:21;;;;;;;1999.90;999.90;;;;;;;9.06;92.76;96450.81;5154818;27;20043;-63
2023/11/08 04:36:48;;;;;;;1999.90;999.90;;;;;;;9.00;92.55;96451.03;5154725;27;20051;-63
2023/11/08 04:39:16;;;;;;;1999.90;999.90;;;;;;;9.03;92.26;96453.53;5154785;27;20078;-63
2023/11/08 04:41:44;;;;;;;1999.90;999.90;;;;;;;9.02;92.25;96437.00;5154707;27;20046;-62
2023/11/08 04:44:13;;;;;;;1999.90;999.90;;;;;;;9.02;92.37;96431.78;5154560;27;20070;-64
2023/11/08 04:46:42;;;;;;;1999.90;999.90;;;;;;;8.97;92.00;96442.38;5154608;27;20050;-64
2023/11/08 04:49:09;;;;;;;1999.90;999.90;;;;;;;8.89;92.58;96436.56;5154967;27;20051;-62
2023/11/08 04:51:37;;;;;;;1999.90;999.90;;;;;;;8.83;93.59;96452.44;5154722;27;20097;-61
2023/11/08 04:54:05;;;;;;;1999.90;999.90;;;;;;;8.86;94.12;96454.94;5154586;27;20050;-64
2023/11/08 04:56:37;;;;;;;1999.90;999.90;;;;;;;8.92;93.58;96454.75;5154509;27;20046;-62
2023/11/08 04:59:04;;;;;;;1999.90;999.90;;;;;;;8.93;93.46;96448.63;5154770;27;20051;-64
2023/11/08 05:01:33;;;;;;;1999.90;999.90;;;;;;;8.93;95.49;96447.75;5154416;27;20043;-63
2023/11/08 05:04:01;;;;;;;1999.90;999.90;;;;;;;8.98;96.56;96448.47;5154441;27;20138;-63
2023/11/08 05:06:28;;;;;;;1999.90;999.90;;;;;;;8.98;96.15;96440.63;5154651;27;20046;-64
2023/11/08 05:08:56;;;;;;;1999.90;999.90;;;;;;;9.00;95.72;96443.19;5154460;27;20051;-62
2023/11/08 05:11:23;;;;;;;1999.90;999.90;;;;;;;9.00;94.87;96419.72;5154507;27;20046;-62
2023/11/08 05:13:50;;;;;;;1999.90;999.90;;;;;;;9.01;95.19;96429.25;5154427;27;20062;-64
2023/11/08 05:16:21;;;;;;;1999.90;999.90;;;;;;;9.08;94.50;96436.81;5154492;27;20472;-63
2023/11/08 05:18:50;;;;;;;1999.90;999.90;;;;;;;9.16;94.55;96433.09;5154475;27;20043;-62
2023/11/08 05:21:18;;;;;;;1999.90;999.90;;;;;;;9.20;95.12;96427.72;5156386;27;20038;-64
2023/11/08 05:23:45;;;;;;;1999.90;999.90;;;;;;;9.29;94.83;96417.84;5158301;27;20400;-62
2023/11/08 05:26:12;;;;;;;1999.90;999.90;;;;;;;9.32;95.23;96416.00;5158367;27;20075;-63
2023/11/08 05:28:39;;;;;;;1999.90;999.90;;;;;;;9.39;95.57;96416.63;5158146;27;20054;-63
2023/11/08 05:31:07;;;;;;;1999.90;999.90;;;;;;;9.44;95.67;96422.53;5158145;27;20407;-64
2023/11/08 05:33:34;;;;;;;1999.90;999.90;;;;;;;9.56;95.74;96423.00;5158155;27;20138;-63
2023/11/08 05:36:04;;;;;;;1999.90;999.90;;;;;;;9.72;96.16;96432.00;5158334;27;20096;-64
2023/11/08 05:38:32;;;;;;;1999.90;999.90;;;;;;;9.92;97.38;96433.03;5158060;27;20051;-64
2023/11/08 05:41:00;;;;;;;1999.90;999.90;;;;;;;10.13;97.94;96435.75;5157637;27;20441;-63
2023/11/08 05:43:27;;;;;;;1999.90;999.90;;;;;;;10.46;99.10;96439.75;5157968;27;20499;-64
2023/11/08 05:45:55;;;;;;;1999.90;999.90;;;;;;;10.78;97.71;96436.78;5157814;27;20059;-63
2023/11/08 05:48:23;;;;;;;1999.90;999.90;;;;;;;11.26;97.77;96432.19;5157971;27;20126;-62
2023/11/08 05:50:50;;;;;;;1999.90;999.90;;;;;;;11.82;91.15;96432.41;5157804;27;20054;-63
2023/11/08 05:53:20;;;;;;;1999.90;999.90;;;;;;;12.44;88.12;96441.00;5157772;27;20058;-63
2023/11/08 05:55:47;;;;;;;1999.90;999.90;;;;;;;13.11;82.93;96441.28;5157636;27;20057;-63
2023/11/08 05:58:14;;;;;;;1999.90;999.90;;;;;;;13.73;78.69;96436.50;5157600;27;20118;-63
2023/11/08 06:00:42;;;;;;;1999.90;999.90;;;;;;;14.25;74.04;96439.88;5157721;27;20046;-62
2023/11/08 06:03:09;;;;;;;1999.90;999.90;;;;;;;14.89;71.21;96447.78;5157594;27;20046;-63
2023/11/08 06:05:36;;;;;;;1999.90;999.90;;;;;;;15.56;69.35;96463.34;5157428;27;20050;-63
2023/11/08 06:08:03;;;;;;;1999.90;999.90;;;;;;;15.87;67.71;96474.66;5157527;27;20046;-63
2023/11/08 06:10:34;;;;;;;1999.90;999.90;;;;;;;15.99;66.96;96479.25;5157489;27;20045;-63
2023/11/08 06:13:01;;;;;;;1999.90;999.90;;;;;;;15.90;66.68;96488.50;5157462;27;20074;-62
2023/11/08 06:15:28;;;;;;;1999.90;999.90;;;;;;;15.67;67.22;96476.72;5157411;27;20043;-62
2023/11/08 06:17:56;;;;;;;1999.90;999.90;;;;;;;15.43;68.65;96473.72;5157462;27;20038;-62
2023/11/08 06:20:23;;;;;;;1999.90;999.90;;;;;;;15.13;69.92;96478.94;5157284;27;20051;-62
2023/11/08 06:22:51;;;;;;;1999.90;999.90;;;;;;;14.91;72.41;96477.50;5157104;27;20386;-64
2023/11/08 06:25:19;;;;;;;1999.90;999.90;;;;;;;14.77;74.07;96485.31;5157212;27;20146;-62
2023/11/08 06:27:48;;;;;;;1999.90;999.90;;;;;;;14.68;74.97;96477.91;5157017;27;20054;-63
2023/11/08 06:30:17;;;;;;;1999.90;999.90;;;;;;;14.64;75.23;96478.13;5157052;27;20510;-65
2023/11/08 06:32:44;;;;;;;1999.90;999.90;;;;;;;14.72;74.96;96458.41;5156505;27;20407;-61
2023/11/08 06:35:11;;;;;;;1999.90;999.90;;;;;;;14.86;74.50;96457.63;5156867;27;20075;-62
2023/11/08 06:37:38;;;;;;;1999.90;999.90;;;;;;;14.99;73.62;96457.81;5157140;27;20133;-62
2023/11/08 06:40:09;;;;;;;1999.90;999.90;;;;;;;15.07;73.74;96454.72;5156681;27;20058;-64
2023/11/08 06:42:37;;;;;;;1999.90;999.90;;;;;;;15.22;73.69;96443.28;5156769;27;20085;-63
2023/11/08 06:45:07;;;;;;;1999.90;999.90;;;;;;;15.48;72.31;96446.19;5156641;27;20484;-63
2023/11/08 06:47:34;;;;;;;1999.90;999.90;;;;;;;15.56;71.82;96447.50;5156629;27;20492;-64
2023/11/08 06:50:01;;;;;;;1999.90;999.90;;;;;;;15.51;71.14;96447.78;5156666;27;20480;-64
2023/11/08 06:52:29;;;;;;;1999.90;999.90;;;;;;;15.36;72.13;96450.41;5156650;27;20047;-63
2023/11/08 06:54:56;;;;;;;1999.90;999.90;;;;;;;15.27;72.78;96451.75;5156492;27;20071;-61
2023/11/08 06:57:24;;;;;;;1999.90;999.90;;;;;;;15.26;73.70;96454.50;5156635;27;20135;-64
2023/11/08 06:59:51;;;;;;;1999.90;999.90;;;;;;;15.29;74.30;96434.09;5156481;27;20126;-63
2023/11/08 07:02:19;;;;;;;1999.90;999.90;;;;;;;15.36;74.97;96445.13;5156392;27;20069;-63
2023/11/08 07:04:47;;;;;;;1999.90;999.90;;;;;;;15.40;75.16;96440.50;5156352;27;20107;-63
2023/11/08 07:07:14;;;;;;;1999.90;999.90;;;;;;;15.44;75.56;96449.91;5156157;27;20039;-62
2023/11/08 07:09:41;;;;;;;1999.90;999.90;;;;;;;15.47;76.39;96447.09;5156204;27;20039;-64
2023/11/08 07:12:09;;;;;;;1999.90;999.90;;;;;;;15.51;76.32;96434.59;5156320;27;20087;-64
2023/11/08 07:14:37;;;;;;;1999.90;999.90;;;;;;;15.57;76.90;96428.13;5156137;27;20070;-62
2023/11/08 07:17:06;;;;;;;1999.90;999.90;;;;;;;15.76;76.51;96425.22;5156147;27;20476;-61
2023/11/08 07:19:34;;;;;;;1999.90;999.90;;;;;;;15.92;75.13;96430.38;5156208;27;20046;-62
2023/11/08 07:22:02;;;;;;;1999.90;999.90;;;;;;;15.99;74.83;96415.94;5156029;27;20050;-63
2023/11/08 07:24:29;;;;;;;1999.90;999.90;;;;;;;16.08;75.39;96424.22;5156190;27;20043;-63
2023/11/08 07:26:56;;;;;;;1999.90;999.90;;;;;;;16.14;75.14;96432.56;5155857;27;20111;-65
2023/11/08 07:29:23;;;;;;;1999.90;999.90;;;;;;;16.15;75.38;96436.06;5155982;27;20047;-64
2023/11/08 07:31:51;;;;;;;1999.90;999.90;;;;;;;16.24;75.02;96429.38;5155955;27;20097;-63
2023/11/08 07:34:20;;;;;;;1999.90;999.90;;;;;;;16.30;75.29;96426.34;5155687;27;20149;-64
2023/11/08 07:36:51;;;;;;;1999.90;999.90;;;;;;;16.36;76.88;96427.75;5155795;27;20042;-64
2023/11/08 07:39:18;;;;;;;1999.90;999.90;;;;;;;16.43;76.39;96413.22;5155940;27;20118;-64
2023/11/08 07:41:45;;;;;;;1999.90;999.90;;;;;;;16.55;75.34;96407.16;5155602;27;20054;-64
2023/11/08 07:44:13;;;;;;;1999.90;999.90;;;;;;;16.64;74.74;96415.41;5154713;27;20085;-64
2023/11/08 07:46:40;;;;;;;1999.90;999.90;;;;;;;16.67;74.85;96413.44;5154987;27;20054;-63
2023/11/08 07:49:07;;;;;;;1999.90;999.90;;;;;;;16.73;75.30;96412.19;5155477;27;20460;-62
2023/11/08 07:51:35;;;;;;;1999.90;999.90;;;;;;;16.69;75.75;96415.97;5155503;27;20050;-64
2023/11/08 07:54:03;;;;;;;1999.90;999.90;;;;;;;16.67;76.49;96415.22;5155285;27;20499;-62
2023/11/08 07:56:30;;;;;;;1999.90;999.90;;;;;;;16.67;76.83;96410.78;5155343;27;20099;-63
2023/11/08 07:58:57;;;;;;;1999.90;999.90;;;;;;;16.67;77.22;96404.66;5155305;27;20051;-64
2023/11/08 08:01:25;;;;;;;1999.90;999.90;;;;;;;16.65;77.24;96409.19;5155178;27;20054;-64
2023/11/08 08:03:53;;;;;;;1999.90;999.90;;;;;;;16.75;77.06;96404.16;5155342;27;20038;-64
2023/11/08 08:06:19;;;;;;;1999.90;999.90;;;;;;;16.81;75.72;96395.84;5154963;27;20055;-65
2023/11/08 08:08:46;;;;;;;1999.90;999.90;;;;;;;16.98;75.15;96412.38;5155126;27;20046;-63
2023/11/08 08:11:15;;;;;;;1999.90;999.90;;;;;;;17.05;74.39;96422.44;5155069;27;20129;-65
2023/11/08 08:13:43;;;;;;;1999.90;999.90;;;;;;;17.02;73.97;96412.06;5155100;27;20074;-64
2023/11/08 08:16:10;;;;;;;1999.90;999.90;;;;;;;17.04;73.95;96409.31;5155142;27;20042;-63
2023/11/08 08:18:37;;;;;;;1999.90;999.90;;;;;;;17.06;74.20;96404.78;5155154;27;20126;-64
2023/11/08 08:21:05;;;;;;;1999.90;999.90;;;;;;;17.02;73.97;96396.22;5154973;27;20126;-63
2023/11/08 08:23:33;;;;;;;1999.90;999.90;;;;;;;17.15;73.15;96401.56;5155061;27;20058;-64
2023/11/08 08:26:00;;;;;;;1999.90;999.90;;;;;;;17.24;73.87;96402.72;5154817;27;20134;-64
2023/11/08 08:28:34;;;;;;;1999.90;999.90;;;;;;;17.38;73.75;96417.66;5154870;27;20118;-65
2023/11/08 08:31:01;;;;;;;1999.90;999.90;;;;;;;17.41;73.34;96416.59;5154930;27;20035;-62
2023/11/08 08:33:28;;;;;;;1999.90;999.90;;;;;;;17.40;73.01;96410.47;5154712;27;20092;-63
2023/11/08 08:35:56;;;;;;;1999.90;999.90;;;;;;;17.46;72.83;96418.94;5154710;27;20054;-65
2023/11/08 08:38:24;;;;;;;1999.90;999.90;;;;;;;17.52;72.38;96426.47;5154729;27;20039;-64
2023/11/08 08:40:52;;;;;;;1999.90;999.90;;;;;;;17.59;73.30;96417.16;5154520;27;20050;-65
2023/11/08 08:43:21;;;;;;;1999.90;999.90;;;;;;;17.72;72.57;96408.34;5154658;27;20050;-64
2023/11/08 08:45:50;;;;;;;1999.90;999.90;;;;;;;17.87;71.53;96404.66;5154962;27;20047;-64
2023/11/08 08:48:18;;;;;;;1999.90;999.90;;;;;;;18.00;70.91;96404.63;5154676;27;20065;-63
2023/11/08 08:50:45;;;;;;;1999.90;999.90;;;;;;;18.14;70.47;96402.84;5154940;27;20303;-65
2023/11/08 08:53:12;;;;;;;1999.90;999.90;;;;;;;18.28;69.71;96401.88;5154700;27;20104;-63
2023/11/08 08:55:39;;;;;;;1999.90;999.90;;;;;;;18.30;67.92;96400.78;5157229;27;20079;-65
2023/11/08 08:58:06;;;;;;;1999.90;999.90;;;;;;;18.36;68.26;96398.69;5158753;27;20438;-62
2023/11/08 09:00:35;;;;;;;1999.90;999.90;;;;;;;18.42;68.17;96395.56;5158747;27;20051;-63
2023/11/08 09:03:06;;;;;;;1999.90;999.90;;;;;;;18.49;67.13;96382.75;5159022;27;20054;-63
2023/11/08 09:05:33;;;;;;;1999.90;999.90;;;;;;;18.47;67.38;96377.56;5158635;27;20050;-64
2023/11/08 09:08:02;;;;;;;1999.90;999.90;;;;;;;18.48;67.04;96368.63;5158642;27;20125;-64
2023/11/08 09:10:29;;;;;;;1999.90;999.90;;;;;;;18.51;66.58;96365.78;5158698;27;20590;-62
2023/11/08 09:12:57;;;;;;;1999.90;999.90;;;;;;;18.43;66.71;96358.38;5158683;27;20043;-63
2023/11/08 09:15:24;;;;;;;1999.90;999.90;;;;;;;18.53;66.66;96355.06;5158580;27;20047;-63
2023/11/08 09:17:51;;;;;;;1999.90;999.90;;;;;;;18.72;66.16;96343.94;5158501;27;20046;-64
2023/11/08 09:20:20;;;;;;;1999.90;999.90;;;;;;;18.90;64.82;96352.34;5158336;27;20047;-64
2023/11/08 09:22:48;;;;;;;1999.90;999.90;;;;;;;19.05;64.63;96349.47;5158506;27;20121;-64
2023/11/08 09:25:15;;;;;;;1999.90;999.90;;;;;;;19.28;64.54;96355.75;5158360;27;20050;-64
2023/11/08 09:27:43;;;;;;;1999.90;999.90;;;;;;;19.53;63.67;96345.03;5158282;27;20050;-62
2023/11/08 09:30:11;;;;;;;1999.90;999.90;;;;;;;19.76;62.56;96361.81;5158237;27;20126;-63
2023/11/08 09:32:38;;;;;;;1999.90;999.90;;;;;;;19.96;61.49;96356.75;5158184;27;20046;-62
2023/11/08 09:35:06;;;;;;;1999.90;999.90;;;;;;;20.08;60.74;96353.13;5158192;27;20049;-64
2023/11/08 09:37:36;;;;;;;1999.90;999.90;;;;;;;20.24;60.44;96353.72;5158177;27;20068;-63
2023/11/08 09:40:09;;;;;;;1999.90;999.90;;;;;;;20.28;59.87;96355.16;5158132;27;20399;-62
2023/11/08 09:42:36;;;;;;;1999.90;999.90;;;;;;;20.19;59.90;96354.09;5158044;27;20096;-64
2023/11/08 09:45:07;;;;;;;1999.90;999.90;;;;;;;20.19;60.42;96354.09;5158002;27;20043;-65
2023/11/08 09:47:36;;;;;;;1999.90;999.90;;;;;;;20.25;59.94;96358.06;5157779;27;20122;-64
2023/11/08 09:50:08;;;;;;;1999.90;999.90;;;;;;;20.20;59.33;96361.09;5158069;27;20583;-62
2023/11/08 09:52:37;;;;;;;1999.90;999.90;;;;;;;20.22;59.44;96356.50;5157866;27;20043;-64
2023/11/08 09:55:05;;;;;;;1999.90;999.90;;;;;;;20.17;59.36;96340.09;5157980;27;20047;-64
2023/11/08 09:57:35;;;;;;;1999.90;999.90;;;;;;;20.14;59.00;96333.22;5157834;27;20105;-65
2023/11/08 10:00:06;;;;;;;1999.90;999.90;;;;;;;20.15;59.77;96336.72;5157735;27;20050;-63
2023/11/08 10:02:35;;;;;;;1999.90;999.90;;;;;;;20.16;59.09;96338.41;5157636;27;20068;-64
2023/11/08 10:05:04;;;;;;;1999.90;999.90;;;;;;;20.04;59.02;96343.72;5157407;27;20095;-64
2023/11/08 10:07:31;;;;;;;1999.90;999.90;;;;;;;20.05;59.58;96345.41;5156492;27;20463;-64
2023/11/08 10:10:00;;;;;;;1999.90;999.90;;;;;;;20.11;59.34;96354.72;5157758;27;20091;-64
2023/11/08 10:12:27;;;;;;;1999.90;999.90;;;;;;;20.18;59.46;96355.91;5157727;27;20415;-64
2023/11/08 10:14:59;;;;;;;1999.90;999.90;;;;;;;20.28;58.82;96334.75;5157526;27;20497;-64
2023/11/08 10:17:36;;;;;;;1999.90;999.90;;;;;;;20.44;58.43;96331.69;5157476;27;20130;-62
2023/11/08 10:20:07;;;;;;;1999.90;999.90;;;;;;;20.60;58.15;96321.63;5157231;27;20059;-64
2023/11/08 10:22:34;;;;;;;1999.90;999.90;;;;;;;20.73;56.49;96314.31;5157227;27;20039;-64
2023/11/08 10:25:04;;;;;;;1999.90;999.90;;;;;;;20.89;57.32;96310.41;5157136;27;20043;-65
2023/11/08 10:27:33;;;;;;;1999.90;999.90;;;;;;;21.18;56.57;96307.13;5157237;27;20047;-64
2023/11/08 10:30:18;;;;;;;1999.90;999.90;;;;;;;21.42;55.70;96312.16;5157004;27;20054;-63
2023/11/08 10:32:46;;;;;;;1999.90;999.90;;;;;;;21.37;55.61;96297.56;5156946;27;20047;-65
2023/11/08 10:35:14;;;;;;;1999.90;999.90;;;;;;;21.42;55.29;96305.97;5157004;27;20149;-63
2023/11/08 10:37:42;;;;;;;1999.90;999.90;;;;;;;21.52;54.81;96309.53;5156935;27;20050;-63
2023/11/08 10:40:13;;;;;;;1999.90;999.90;;;;;;;21.45;54.75;96306.56;5156585;27;20045;-64
2023/11/08 10:42:41;;;;;;;1999.90;999.90;;;;;;;21.48;54.71;96302.78;5156900;27;20099;-65
2023/11/08 10:45:08;;;;;;;1999.90;999.90;;;;;;;21.39;54.62;96288.47;5156832;27;20082;-62
2023/11/08 10:47:39;;;;;;;1999.90;999.90;;;;;;;21.34;54.05;96272.06;5156670;27;20047;-65
2023/11/08 10:50:07;;;;;;;1999.90;999.90;;;;;;;21.28;54.46;96261.97;5156876;27;20043;-63
2023/11/08 10:52:34;;;;;;;1999.90;999.90;;;;;;;21.19;55.05;96259.13;5156634;27;20047;-63
2023/11/08 10:55:04;;;;;;;1999.90;999.90;;;;;;;21.04;55.52;96250.63;5156600;27;20050;-64
2023/11/08 10:57:34;;;;;;;1999.90;999.90;;;;;;;21.00;56.03;96245.72;5156641;27;20042;-65
2023/11/08 11:00:04;;;;;;;1999.90;999.90;;;;;;;20.96;55.84;96253.94;5156428;27;20095;-64